sensor_id;sensor_type;location;lat;lon;timestamp;P1;durP1;ratioP1;P2;durP2;ratioP2
10050;SDS011;5065;46.942;7.432;2023-02-28T00:00:02;7.13;;;6.33;;
10050;SDS011;5065;46.942;7.432;2023-02-28T00:02:35;6.73;;;6.03;;
10050;SDS011;5065;46.942;7.432;2023-02-28T00:05:02;8.00;;;6.30;;
10050;SDS011;5065;46.942;7.432;2023-02-28T00:07:31;7.40;;;5.87;;
10050;SDS011;5065;46.942;7.432;2023-02-28T00:09:58;6.33;;;5.73;;
10050;SDS011;5065;46.942;7.432;2023-02-28T00:12:27;10.00;;;6.10;;
10050;SDS011;5065;46.942;7.432;2023-02-28T00:14:54;6.73;;;6.03;;
10050;SDS011;5065;46.942;7.432;2023-02-28T00:17:21;7.60;;;5.83;;
10050;SDS011;5065;46.942;7.432;2023-02-28T00:19:49;7.80;;;6.53;;
10050;SDS011;5065;46.942;7.432;2023-02-28T00:22:17;7.77;;;6.40;;
10050;SDS011;5065;46.942;7.432;2023-02-28T00:24:46;9.70;;;6.73;;
10050;SDS011;5065;46.942;7.432;2023-02-28T00:27:13;8.30;;;7.10;;
10050;SDS011;5065;46.942;7.432;2023-02-28T00:29:42;7.67;;;6.87;;
10050;SDS011;5065;46.942;7.432;2023-02-28T00:32:09;12.97;;;6.60;;
10050;SDS011;5065;46.942;7.432;2023-02-28T00:34:36;7.40;;;6.63;;
10050;SDS011;5065;46.942;7.432;2023-02-28T00:37:04;7.77;;;6.77;;
10050;SDS011;5065;46.942;7.432;2023-02-28T00:39:33;8.37;;;6.57;;
10050;SDS011;5065;46.942;7.432;2023-02-28T00:42:01;7.23;;;6.37;;
10050;SDS011;5065;46.942;7.432;2023-02-28T00:44:29;7.20;;;6.53;;
10050;SDS011;5065;46.942;7.432;2023-02-28T00:46:57;7.77;;;6.57;;
10050;SDS011;5065;46.942;7.432;2023-02-28T00:49:26;11.63;;;6.77;;
10050;SDS011;5065;46.942;7.432;2023-02-28T00:51:54;7.77;;;6.50;;
10050;SDS011;5065;46.942;7.432;2023-02-28T00:54:22;9.30;;;7.33;;
10050;SDS011;5065;46.942;7.432;2023-02-28T00:56:49;6.77;;;5.60;;
10050;SDS011;5065;46.942;7.432;2023-02-28T00:59:17;6.87;;;6.17;;
10050;SDS011;5065;46.942;7.432;2023-02-28T01:01:45;9.27;;;6.80;;
10050;SDS011;5065;46.942;7.432;2023-02-28T01:04:14;7.77;;;7.00;;
10050;SDS011;5065;46.942;7.432;2023-02-28T01:06:41;8.03;;;6.77;;
10050;SDS011;5065;46.942;7.432;2023-02-28T01:09:09;10.10;;;7.03;;
10050;SDS011;5065;46.942;7.432;2023-02-28T01:11:37;7.77;;;6.60;;
10050;SDS011;5065;46.942;7.432;2023-02-28T01:14:04;8.50;;;7.13;;
10050;SDS011;5065;46.942;7.432;2023-02-28T01:16:31;11.10;;;7.27;;
10050;SDS011;5065;46.942;7.432;2023-02-28T01:18:58;8.63;;;7.77;;
10050;SDS011;5065;46.942;7.432;2023-02-28T01:21:27;7.13;;;6.37;;
10050;SDS011;5065;46.942;7.432;2023-02-28T01:23:55;12.50;;;7.10;;
10050;SDS011;5065;46.942;7.432;2023-02-28T01:26:23;7.70;;;6.80;;
10050;SDS011;5065;46.942;7.432;2023-02-28T01:28:51;8.83;;;7.57;;
10050;SDS011;5065;46.942;7.432;2023-02-28T01:31:19;10.33;;;7.20;;
10050;SDS011;5065;46.942;7.432;2023-02-28T01:33:48;8.33;;;6.60;;
10050;SDS011;5065;46.942;7.432;2023-02-28T01:36:17;8.87;;;7.37;;
10050;SDS011;5065;46.942;7.432;2023-02-28T01:38:47;10.20;;;6.90;;
10050;SDS011;5065;46.942;7.432;2023-02-28T01:41:15;11.37;;;7.27;;
10050;SDS011;5065;46.942;7.432;2023-02-28T01:43:54;8.50;;;7.13;;
10050;SDS011;5065;46.942;7.432;2023-02-28T01:46:23;7.43;;;6.70;;
10050;SDS011;5065;46.942;7.432;2023-02-28T01:48:51;13.97;;;7.67;;
10050;SDS011;5065;46.942;7.432;2023-02-28T01:51:24;9.07;;;7.20;;
10050;SDS011;5065;46.942;7.432;2023-02-28T01:53:58;8.07;;;7.27;;
10050;SDS011;5065;46.942;7.432;2023-02-28T01:56:30;8.70;;;7.47;;
10050;SDS011;5065;46.942;7.432;2023-02-28T01:59:02;10.37;;;7.67;;
10050;SDS011;5065;46.942;7.432;2023-02-28T02:01:29;8.50;;;7.00;;
10050;SDS011;5065;46.942;7.432;2023-02-28T02:03:57;9.60;;;7.07;;
10050;SDS011;5065;46.942;7.432;2023-02-28T02:06:28;8.53;;;7.63;;
10050;SDS011;5065;46.942;7.432;2023-02-28T02:09:01;9.37;;;7.03;;
10050;SDS011;5065;46.942;7.432;2023-02-28T02:11:29;10.93;;;6.90;;
10050;SDS011;5065;46.942;7.432;2023-02-28T02:16:59;9.00;;;7.57;;
10050;SDS011;5065;46.942;7.432;2023-02-28T02:19:42;8.63;;;7.30;;
10050;SDS011;5065;46.942;7.432;2023-02-28T02:22:37;7.70;;;6.63;;
10050;SDS011;5065;46.942;7.432;2023-02-28T02:25:27;8.70;;;7.13;;
10050;SDS011;5065;46.942;7.432;2023-02-28T02:34:05;8.60;;;6.80;;
10050;SDS011;5065;46.942;7.432;2023-02-28T02:36:51;8.77;;;7.27;;
10050;SDS011;5065;46.942;7.432;2023-02-28T02:39:27;9.80;;;7.63;;
10050;SDS011;5065;46.942;7.432;2023-02-28T02:41:58;8.90;;;7.57;;
10050;SDS011;5065;46.942;7.432;2023-02-28T02:44:28;7.87;;;6.93;;
10050;SDS011;5065;46.942;7.432;2023-02-28T02:47:02;8.77;;;7.23;;
10050;SDS011;5065;46.942;7.432;2023-02-28T02:49:36;7.77;;;6.63;;
10050;SDS011;5065;46.942;7.432;2023-02-28T02:52:07;8.50;;;7.67;;
10050;SDS011;5065;46.942;7.432;2023-02-28T02:54:37;9.37;;;7.40;;
10050;SDS011;5065;46.942;7.432;2023-02-28T02:57:07;8.00;;;6.53;;
10050;SDS011;5065;46.942;7.432;2023-02-28T02:59:37;8.23;;;7.30;;
10050;SDS011;5065;46.942;7.432;2023-02-28T03:02:07;6.97;;;6.13;;
10050;SDS011;5065;46.942;7.432;2023-02-28T03:04:43;8.87;;;6.50;;
10050;SDS011;5065;46.942;7.432;2023-02-28T03:07:14;7.73;;;6.57;;
10050;SDS011;5065;46.942;7.432;2023-02-28T03:09:49;7.73;;;6.23;;
10050;SDS011;5065;46.942;7.432;2023-02-28T03:12:18;8.33;;;6.63;;
10050;SDS011;5065;46.942;7.432;2023-02-28T03:14:51;8.47;;;6.57;;
10050;SDS011;5065;46.942;7.432;2023-02-28T03:17:31;8.03;;;6.57;;
10050;SDS011;5065;46.942;7.432;2023-02-28T03:20:13;8.90;;;6.60;;
10050;SDS011;5065;46.942;7.432;2023-02-28T03:22:52;7.73;;;6.77;;
10050;SDS011;5065;46.942;7.432;2023-02-28T03:25:30;8.03;;;6.97;;
10050;SDS011;5065;46.942;7.432;2023-02-28T03:28:05;12.37;;;6.50;;
10050;SDS011;5065;46.942;7.432;2023-02-28T03:30:39;11.87;;;6.40;;
10050;SDS011;5065;46.942;7.432;2023-02-28T03:33:11;7.53;;;6.47;;
10050;SDS011;5065;46.942;7.432;2023-02-28T03:35:43;11.20;;;6.70;;
10050;SDS011;5065;46.942;7.432;2023-02-28T03:38:17;6.83;;;6.13;;
10050;SDS011;5065;46.942;7.432;2023-02-28T03:40:51;7.30;;;6.20;;
10050;SDS011;5065;46.942;7.432;2023-02-28T03:43:23;7.77;;;6.33;;
10050;SDS011;5065;46.942;7.432;2023-02-28T03:45:54;8.20;;;6.73;;
10050;SDS011;5065;46.942;7.432;2023-02-28T03:48:23;10.17;;;7.03;;
10050;SDS011;5065;46.942;7.432;2023-02-28T03:50:57;8.30;;;7.10;;
10050;SDS011;5065;46.942;7.432;2023-02-28T03:53:27;8.50;;;6.57;;
10050;SDS011;5065;46.942;7.432;2023-02-28T03:55:59;7.33;;;6.17;;
10050;SDS011;5065;46.942;7.432;2023-02-28T03:58:34;8.17;;;6.03;;
10050;SDS011;5065;46.942;7.432;2023-02-28T04:01:07;7.50;;;6.60;;
10050;SDS011;5065;46.942;7.432;2023-02-28T04:03:36;8.63;;;6.90;;
10050;SDS011;5065;46.942;7.432;2023-02-28T04:06:07;8.23;;;6.80;;
10050;SDS011;5065;46.942;7.432;2023-02-28T04:08:39;11.87;;;6.63;;
10050;SDS011;5065;46.942;7.432;2023-02-28T04:11:10;7.33;;;6.47;;
10050;SDS011;5065;46.942;7.432;2023-02-28T04:13:44;6.83;;;5.93;;
10050;SDS011;5065;46.942;7.432;2023-02-28T04:16:11;7.40;;;5.83;;
10050;SDS011;5065;46.942;7.432;2023-02-28T04:18:39;7.43;;;6.60;;
10050;SDS011;5065;46.942;7.432;2023-02-28T04:21:09;10.73;;;7.60;;
10050;SDS011;5065;46.942;7.432;2023-02-28T04:23:37;7.93;;;6.87;;
10050;SDS011;5065;46.942;7.432;2023-02-28T04:26:04;7.77;;;6.97;;
10050;SDS011;5065;46.942;7.432;2023-02-28T04:28:32;6.40;;;5.90;;
10050;SDS011;5065;46.942;7.432;2023-02-28T04:31:00;8.40;;;6.40;;
10050;SDS011;5065;46.942;7.432;2023-02-28T04:33:30;10.53;;;7.60;;
10050;SDS011;5065;46.942;7.432;2023-02-28T04:35:59;8.60;;;6.23;;
10050;SDS011;5065;46.942;7.432;2023-02-28T04:38:29;9.03;;;7.50;;
10050;SDS011;5065;46.942;7.432;2023-02-28T04:40:59;8.23;;;6.90;;
10050;SDS011;5065;46.942;7.432;2023-02-28T04:43:26;9.30;;;6.83;;
10050;SDS011;5065;46.942;7.432;2023-02-28T04:45:54;9.53;;;6.80;;
10050;SDS011;5065;46.942;7.432;2023-02-28T04:48:22;7.30;;;6.60;;
10050;SDS011;5065;46.942;7.432;2023-02-28T04:50:50;8.40;;;7.53;;
10050;SDS011;5065;46.942;7.432;2023-02-28T04:53:17;14.37;;;10.77;;
10050;SDS011;5065;46.942;7.432;2023-02-28T04:55:46;14.67;;;11.17;;
10050;SDS011;5065;46.942;7.432;2023-02-28T04:58:13;12.43;;;9.17;;
10050;SDS011;5065;46.942;7.432;2023-02-28T05:00:41;8.43;;;7.60;;
10050;SDS011;5065;46.942;7.432;2023-02-28T05:03:08;13.67;;;7.60;;
10050;SDS011;5065;46.942;7.432;2023-02-28T05:05:35;10.07;;;7.60;;
10050;SDS011;5065;46.942;7.432;2023-02-28T05:08:03;7.63;;;6.47;;
10050;SDS011;5065;46.942;7.432;2023-02-28T05:10:30;8.30;;;7.30;;
10050;SDS011;5065;46.942;7.432;2023-02-28T05:12:59;11.20;;;8.07;;
10050;SDS011;5065;46.942;7.432;2023-02-28T05:15:26;8.90;;;7.03;;
10050;SDS011;5065;46.942;7.432;2023-02-28T05:17:53;9.10;;;7.77;;
10050;SDS011;5065;46.942;7.432;2023-02-28T05:20:20;11.10;;;8.50;;
10050;SDS011;5065;46.942;7.432;2023-02-28T05:22:47;9.67;;;7.23;;
10050;SDS011;5065;46.942;7.432;2023-02-28T05:25:16;9.23;;;7.57;;
10050;SDS011;5065;46.942;7.432;2023-02-28T05:27:46;8.73;;;7.43;;
10050;SDS011;5065;46.942;7.432;2023-02-28T05:30:15;8.13;;;7.10;;
10050;SDS011;5065;46.942;7.432;2023-02-28T05:32:43;10.60;;;8.33;;
10050;SDS011;5065;46.942;7.432;2023-02-28T05:35:10;11.20;;;8.07;;
10050;SDS011;5065;46.942;7.432;2023-02-28T05:37:38;11.33;;;8.67;;
10050;SDS011;5065;46.942;7.432;2023-02-28T05:40:06;9.87;;;7.60;;
10050;SDS011;5065;46.942;7.432;2023-02-28T05:42:35;9.67;;;8.13;;
10050;SDS011;5065;46.942;7.432;2023-02-28T05:45:02;8.90;;;8.00;;
10050;SDS011;5065;46.942;7.432;2023-02-28T05:47:33;9.67;;;7.73;;
10050;SDS011;5065;46.942;7.432;2023-02-28T05:50:01;10.43;;;7.90;;
10050;SDS011;5065;46.942;7.432;2023-02-28T05:52:28;17.77;;;8.87;;
10050;SDS011;5065;46.942;7.432;2023-02-28T05:54:56;9.70;;;8.10;;
10050;SDS011;5065;46.942;7.432;2023-02-28T05:57:23;8.10;;;6.97;;
10050;SDS011;5065;46.942;7.432;2023-02-28T05:59:50;8.97;;;7.87;;
10050;SDS011;5065;46.942;7.432;2023-02-28T06:02:18;9.10;;;8.10;;
10050;SDS011;5065;46.942;7.432;2023-02-28T06:04:46;10.77;;;8.20;;
10050;SDS011;5065;46.942;7.432;2023-02-28T06:07:13;13.13;;;10.03;;
10050;SDS011;5065;46.942;7.432;2023-02-28T06:09:42;10.30;;;7.83;;
10050;SDS011;5065;46.942;7.432;2023-02-28T06:12:09;10.50;;;8.13;;
10050;SDS011;5065;46.942;7.432;2023-02-28T06:14:36;10.33;;;8.17;;
10050;SDS011;5065;46.942;7.432;2023-02-28T06:17:04;12.73;;;8.13;;
10050;SDS011;5065;46.942;7.432;2023-02-28T06:19:31;12.17;;;8.43;;
10050;SDS011;5065;46.942;7.432;2023-02-28T06:22:00;9.27;;;8.10;;
10050;SDS011;5065;46.942;7.432;2023-02-28T06:24:27;10.03;;;7.90;;
10050;SDS011;5065;46.942;7.432;2023-02-28T06:26:55;10.70;;;8.50;;
10050;SDS011;5065;46.942;7.432;2023-02-28T06:29:24;11.57;;;8.73;;
10050;SDS011;5065;46.942;7.432;2023-02-28T06:31:51;11.20;;;8.50;;
10050;SDS011;5065;46.942;7.432;2023-02-28T06:34:18;10.73;;;9.17;;
10050;SDS011;5065;46.942;7.432;2023-02-28T06:36:46;9.60;;;8.57;;
10050;SDS011;5065;46.942;7.432;2023-02-28T06:39:14;14.67;;;9.90;;
10050;SDS011;5065;46.942;7.432;2023-02-28T06:41:42;14.07;;;10.00;;
10050;SDS011;5065;46.942;7.432;2023-02-28T06:44:11;14.60;;;9.63;;
10050;SDS011;5065;46.942;7.432;2023-02-28T06:46:40;9.83;;;8.77;;
10050;SDS011;5065;46.942;7.432;2023-02-28T06:49:07;16.33;;;9.10;;
10050;SDS011;5065;46.942;7.432;2023-02-28T06:51:35;15.50;;;9.17;;
10050;SDS011;5065;46.942;7.432;2023-02-28T06:54:04;16.67;;;10.13;;
10050;SDS011;5065;46.942;7.432;2023-02-28T06:56:35;20.43;;;15.60;;
10050;SDS011;5065;46.942;7.432;2023-02-28T06:59:02;19.97;;;13.07;;
10050;SDS011;5065;46.942;7.432;2023-02-28T07:01:31;14.90;;;10.13;;
10050;SDS011;5065;46.942;7.432;2023-02-28T07:03:58;13.50;;;11.20;;
10050;SDS011;5065;46.942;7.432;2023-02-28T07:06:26;23.17;;;15.87;;
10050;SDS011;5065;46.942;7.432;2023-02-28T07:08:54;13.83;;;9.47;;
10050;SDS011;5065;46.942;7.432;2023-02-28T07:11:22;14.77;;;10.17;;
10050;SDS011;5065;46.942;7.432;2023-02-28T07:13:52;19.87;;;10.90;;
10050;SDS011;5065;46.942;7.432;2023-02-28T07:16:20;10.93;;;9.43;;
10050;SDS011;5065;46.942;7.432;2023-02-28T07:18:48;11.70;;;9.03;;
10050;SDS011;5065;46.942;7.432;2023-02-28T07:21:16;13.60;;;9.33;;
10050;SDS011;5065;46.942;7.432;2023-02-28T07:23:43;14.13;;;9.83;;
10050;SDS011;5065;46.942;7.432;2023-02-28T07:26:11;13.50;;;9.87;;
10050;SDS011;5065;46.942;7.432;2023-02-28T07:28:40;23.50;;;15.63;;
10050;SDS011;5065;46.942;7.432;2023-02-28T07:31:09;11.43;;;9.77;;
10050;SDS011;5065;46.942;7.432;2023-02-28T07:33:38;14.03;;;9.97;;
10050;SDS011;5065;46.942;7.432;2023-02-28T07:36:06;10.67;;;8.53;;
10050;SDS011;5065;46.942;7.432;2023-02-28T07:38:39;12.70;;;10.57;;
10050;SDS011;5065;46.942;7.432;2023-02-28T07:41:06;14.67;;;11.00;;
10050;SDS011;5065;46.942;7.432;2023-02-28T07:43:33;12.23;;;9.30;;
10050;SDS011;5065;46.942;7.432;2023-02-28T07:46:01;12.60;;;9.77;;
10050;SDS011;5065;46.942;7.432;2023-02-28T07:48:31;13.90;;;9.50;;
10050;SDS011;5065;46.942;7.432;2023-02-28T07:50:58;13.80;;;10.40;;
10050;SDS011;5065;46.942;7.432;2023-02-28T07:53:26;15.13;;;9.57;;
10050;SDS011;5065;46.942;7.432;2023-02-28T07:55:54;13.13;;;9.40;;
10050;SDS011;5065;46.942;7.432;2023-02-28T07:58:22;14.27;;;10.20;;
10050;SDS011;5065;46.942;7.432;2023-02-28T08:00:50;11.90;;;9.47;;
10050;SDS011;5065;46.942;7.432;2023-02-28T08:03:18;12.23;;;9.43;;
10050;SDS011;5065;46.942;7.432;2023-02-28T08:05:49;17.87;;;11.27;;
10050;SDS011;5065;46.942;7.432;2023-02-28T08:08:18;13.97;;;10.80;;
10050;SDS011;5065;46.942;7.432;2023-02-28T08:10:45;14.03;;;10.73;;
10050;SDS011;5065;46.942;7.432;2023-02-28T08:13:12;15.87;;;10.97;;
10050;SDS011;5065;46.942;7.432;2023-02-28T08:15:40;33.83;;;13.37;;
10050;SDS011;5065;46.942;7.432;2023-02-28T08:18:10;15.87;;;10.20;;
10050;SDS011;5065;46.942;7.432;2023-02-28T08:20:37;13.50;;;9.43;;
10050;SDS011;5065;46.942;7.432;2023-02-28T08:23:05;11.83;;;10.00;;
10050;SDS011;5065;46.942;7.432;2023-02-28T08:25:33;13.50;;;10.13;;
10050;SDS011;5065;46.942;7.432;2023-02-28T08:28:00;12.37;;;9.27;;
10050;SDS011;5065;46.942;7.432;2023-02-28T08:30:27;11.10;;;8.90;;
10050;SDS011;5065;46.942;7.432;2023-02-28T08:32:54;13.77;;;9.87;;
10050;SDS011;5065;46.942;7.432;2023-02-28T08:35:21;13.50;;;8.93;;
10050;SDS011;5065;46.942;7.432;2023-02-28T08:37:49;11.93;;;9.77;;
10050;SDS011;5065;46.942;7.432;2023-02-28T08:40:18;11.63;;;8.53;;
10050;SDS011;5065;46.942;7.432;2023-02-28T08:42:45;12.47;;;9.63;;
10050;SDS011;5065;46.942;7.432;2023-02-28T08:45:13;12.70;;;9.47;;
10050;SDS011;5065;46.942;7.432;2023-02-28T08:47:40;14.50;;;9.87;;
10050;SDS011;5065;46.942;7.432;2023-02-28T08:50:08;17.87;;;9.70;;
10050;SDS011;5065;46.942;7.432;2023-02-28T08:52:36;12.53;;;9.73;;
10050;SDS011;5065;46.942;7.432;2023-02-28T08:55:04;11.90;;;8.67;;
10050;SDS011;5065;46.942;7.432;2023-02-28T08:57:33;14.70;;;9.83;;
10050;SDS011;5065;46.942;7.432;2023-02-28T09:00:00;13.73;;;9.40;;
10050;SDS011;5065;46.942;7.432;2023-02-28T09:02:29;15.43;;;10.47;;
10050;SDS011;5065;46.942;7.432;2023-02-28T09:04:57;14.27;;;9.57;;
10050;SDS011;5065;46.942;7.432;2023-02-28T09:07:24;12.57;;;10.17;;
10050;SDS011;5065;46.942;7.432;2023-02-28T09:09:51;13.70;;;9.40;;
10050;SDS011;5065;46.942;7.432;2023-02-28T09:12:23;11.40;;;9.90;;
10050;SDS011;5065;46.942;7.432;2023-02-28T09:14:53;17.77;;;10.13;;
10050;SDS011;5065;46.942;7.432;2023-02-28T09:17:21;15.40;;;10.50;;
10050;SDS011;5065;46.942;7.432;2023-02-28T09:19:48;16.33;;;12.30;;
10050;SDS011;5065;46.942;7.432;2023-02-28T09:22:15;12.77;;;9.53;;
10050;SDS011;5065;46.942;7.432;2023-02-28T09:24:42;11.40;;;9.53;;
10050;SDS011;5065;46.942;7.432;2023-02-28T09:27:10;13.27;;;9.70;;
10050;SDS011;5065;46.942;7.432;2023-02-28T09:29:38;12.40;;;9.63;;
10050;SDS011;5065;46.942;7.432;2023-02-28T09:32:06;12.93;;;10.63;;
10050;SDS011;5065;46.942;7.432;2023-02-28T09:34:33;16.57;;;9.90;;
10050;SDS011;5065;46.942;7.432;2023-02-28T09:37:01;13.47;;;10.47;;
10050;SDS011;5065;46.942;7.432;2023-02-28T09:39:29;12.20;;;10.17;;
10050;SDS011;5065;46.942;7.432;2023-02-28T09:41:56;14.37;;;9.50;;
10050;SDS011;5065;46.942;7.432;2023-02-28T09:44:26;12.40;;;10.53;;
10050;SDS011;5065;46.942;7.432;2023-02-28T09:46:57;11.30;;;9.60;;
10050;SDS011;5065;46.942;7.432;2023-02-28T09:49:31;10.87;;;9.70;;
10050;SDS011;5065;46.942;7.432;2023-02-28T09:52:03;16.30;;;10.07;;
10050;SDS011;5065;46.942;7.432;2023-02-28T09:54:34;16.30;;;12.20;;
10050;SDS011;5065;46.942;7.432;2023-02-28T09:57:05;11.67;;;10.47;;
10050;SDS011;5065;46.942;7.432;2023-02-28T09:59:43;11.37;;;9.87;;
10050;SDS011;5065;46.942;7.432;2023-02-28T10:05:09;13.43;;;10.27;;
10050;SDS011;5065;46.942;7.432;2023-02-28T10:07:45;11.00;;;9.83;;
10050;SDS011;5065;46.942;7.432;2023-02-28T10:10:24;14.40;;;9.67;;
10050;SDS011;5065;46.942;7.432;2023-02-28T10:12:54;15.53;;;10.40;;
10050;SDS011;5065;46.942;7.432;2023-02-28T10:15:25;11.50;;;9.57;;
10050;SDS011;5065;46.942;7.432;2023-02-28T10:17:57;12.07;;;9.60;;
10050;SDS011;5065;46.942;7.432;2023-02-28T10:20:30;14.00;;;10.03;;
10050;SDS011;5065;46.942;7.432;2023-02-28T10:23:03;13.47;;;10.47;;
10050;SDS011;5065;46.942;7.432;2023-02-28T10:25:35;16.27;;;10.60;;
10050;SDS011;5065;46.942;7.432;2023-02-28T10:28:07;15.00;;;10.83;;
10050;SDS011;5065;46.942;7.432;2023-02-28T10:30:38;12.90;;;10.90;;
10050;SDS011;5065;46.942;7.432;2023-02-28T10:33:08;13.20;;;10.40;;
10050;SDS011;5065;46.942;7.432;2023-02-28T10:35:49;14.87;;;10.40;;
10050;SDS011;5065;46.942;7.432;2023-02-28T10:38:18;12.50;;;9.80;;
10050;SDS011;5065;46.942;7.432;2023-02-28T10:40:47;16.10;;;11.70;;
10050;SDS011;5065;46.942;7.432;2023-02-28T10:43:19;22.00;;;13.80;;
10050;SDS011;5065;46.942;7.432;2023-02-28T10:45:55;27.53;;;12.23;;
10050;SDS011;5065;46.942;7.432;2023-02-28T10:48:27;17.20;;;11.93;;
10050;SDS011;5065;46.942;7.432;2023-02-28T10:51:00;17.83;;;11.17;;
10050;SDS011;5065;46.942;7.432;2023-02-28T10:53:30;15.53;;;11.77;;
10050;SDS011;5065;46.942;7.432;2023-02-28T10:56:00;14.37;;;10.97;;
10050;SDS011;5065;46.942;7.432;2023-02-28T10:58:30;16.20;;;11.03;;
10050;SDS011;5065;46.942;7.432;2023-02-28T11:01:12;13.47;;;10.87;;
10050;SDS011;5065;46.942;7.432;2023-02-28T11:03:42;15.97;;;11.53;;
10050;SDS011;5065;46.942;7.432;2023-02-28T11:06:13;15.93;;;11.67;;
10050;SDS011;5065;46.942;7.432;2023-02-28T11:08:44;17.80;;;10.87;;
10050;SDS011;5065;46.942;7.432;2023-02-28T11:11:13;12.83;;;10.63;;
10050;SDS011;5065;46.942;7.432;2023-02-28T11:13:42;20.43;;;11.53;;
10050;SDS011;5065;46.942;7.432;2023-02-28T11:16:12;18.27;;;11.33;;
10050;SDS011;5065;46.942;7.432;2023-02-28T11:18:42;14.80;;;11.27;;
10050;SDS011;5065;46.942;7.432;2023-02-28T11:21:17;17.33;;;11.93;;
10050;SDS011;5065;46.942;7.432;2023-02-28T11:23:48;12.57;;;10.30;;
10050;SDS011;5065;46.942;7.432;2023-02-28T11:29:08;14.47;;;11.23;;
10050;SDS011;5065;46.942;7.432;2023-02-28T11:31:39;16.13;;;11.87;;
10050;SDS011;5065;46.942;7.432;2023-02-28T11:36:54;14.57;;;11.57;;
10050;SDS011;5065;46.942;7.432;2023-02-28T11:39:23;13.50;;;10.97;;
10050;SDS011;5065;46.942;7.432;2023-02-28T11:41:59;14.40;;;11.43;;
10050;SDS011;5065;46.942;7.432;2023-02-28T11:44:44;14.23;;;11.40;;
10050;SDS011;5065;46.942;7.432;2023-02-28T11:47:25;16.87;;;11.20;;
10050;SDS011;5065;46.942;7.432;2023-02-28T11:50:04;12.93;;;11.07;;
10050;SDS011;5065;46.942;7.432;2023-02-28T11:52:45;15.53;;;12.00;;
10050;SDS011;5065;46.942;7.432;2023-02-28T11:55:19;26.00;;;15.80;;
10050;SDS011;5065;46.942;7.432;2023-02-28T12:00:51;15.70;;;11.77;;
10050;SDS011;5065;46.942;7.432;2023-02-28T12:03:31;14.47;;;11.27;;
10050;SDS011;5065;46.942;7.432;2023-02-28T12:06:13;16.60;;;12.10;;
10050;SDS011;5065;46.942;7.432;2023-02-28T12:08:56;13.33;;;10.63;;
10050;SDS011;5065;46.942;7.432;2023-02-28T12:11:34;18.97;;;10.97;;
10050;SDS011;5065;46.942;7.432;2023-02-28T12:14:27;15.23;;;10.67;;
10050;SDS011;5065;46.942;7.432;2023-02-28T12:17:16;15.20;;;10.60;;
10050;SDS011;5065;46.942;7.432;2023-02-28T12:19:52;17.80;;;10.53;;
10050;SDS011;5065;46.942;7.432;2023-02-28T12:22:28;13.93;;;10.97;;
10050;SDS011;5065;46.942;7.432;2023-02-28T12:27:52;14.97;;;10.97;;
10050;SDS011;5065;46.942;7.432;2023-02-28T12:30:21;13.10;;;10.30;;
10050;SDS011;5065;46.942;7.432;2023-02-28T12:32:52;13.77;;;11.20;;
10050;SDS011;5065;46.942;7.432;2023-02-28T12:35:24;22.23;;;14.90;;
10050;SDS011;5065;46.942;7.432;2023-02-28T12:37:55;13.33;;;11.37;;
10050;SDS011;5065;46.942;7.432;2023-02-28T12:40:41;14.43;;;10.80;;
10050;SDS011;5065;46.942;7.432;2023-02-28T12:43:12;13.57;;;10.90;;
10050;SDS011;5065;46.942;7.432;2023-02-28T12:45:42;12.83;;;10.13;;
10050;SDS011;5065;46.942;7.432;2023-02-28T12:48:14;14.07;;;11.03;;
10050;SDS011;5065;46.942;7.432;2023-02-28T12:50:47;14.00;;;11.47;;
10050;SDS011;5065;46.942;7.432;2023-02-28T12:53:17;12.60;;;10.10;;
10050;SDS011;5065;46.942;7.432;2023-02-28T12:55:50;15.57;;;11.63;;
10050;SDS011;5065;46.942;7.432;2023-02-28T12:58:26;13.83;;;10.57;;
10050;SDS011;5065;46.942;7.432;2023-02-28T13:01:06;16.47;;;10.93;;
10050;SDS011;5065;46.942;7.432;2023-02-28T13:07:18;13.17;;;10.57;;
10050;SDS011;5065;46.942;7.432;2023-02-28T13:10:21;13.80;;;10.70;;
10050;SDS011;5065;46.942;7.432;2023-02-28T13:12:50;13.67;;;11.20;;
10050;SDS011;5065;46.942;7.432;2023-02-28T13:15:21;13.83;;;10.43;;
10050;SDS011;5065;46.942;7.432;2023-02-28T13:17:51;11.87;;;10.37;;
10050;SDS011;5065;46.942;7.432;2023-02-28T13:20:20;13.13;;;10.70;;
10050;SDS011;5065;46.942;7.432;2023-02-28T13:22:49;14.13;;;11.00;;
10050;SDS011;5065;46.942;7.432;2023-02-28T13:31:33;12.07;;;9.90;;
10050;SDS011;5065;46.942;7.432;2023-02-28T13:34:40;13.13;;;10.67;;
10050;SDS011;5065;46.942;7.432;2023-02-28T13:37:33;11.50;;;10.23;;
10050;SDS011;5065;46.942;7.432;2023-02-28T13:43:02;15.47;;;11.30;;
10050;SDS011;5065;46.942;7.432;2023-02-28T13:45:33;11.00;;;9.73;;
10050;SDS011;5065;46.942;7.432;2023-02-28T13:48:03;16.67;;;10.67;;
10050;SDS011;5065;46.942;7.432;2023-02-28T13:50:43;14.80;;;10.87;;
10050;SDS011;5065;46.942;7.432;2023-02-28T13:53:30;14.50;;;10.73;;
10050;SDS011;5065;46.942;7.432;2023-02-28T13:56:19;17.47;;;10.93;;
10050;SDS011;5065;46.942;7.432;2023-02-28T13:59:04;17.50;;;10.43;;
10050;SDS011;5065;46.942;7.432;2023-02-28T14:01:53;14.13;;;10.10;;
10050;SDS011;5065;46.942;7.432;2023-02-28T14:04:41;14.17;;;10.63;;
10050;SDS011;5065;46.942;7.432;2023-02-28T14:07:19;18.00;;;11.20;;
10050;SDS011;5065;46.942;7.432;2023-02-28T14:09:51;15.20;;;11.00;;
10050;SDS011;5065;46.942;7.432;2023-02-28T14:15:27;13.93;;;10.93;;
10050;SDS011;5065;46.942;7.432;2023-02-28T14:18:05;12.20;;;10.77;;
10050;SDS011;5065;46.942;7.432;2023-02-28T14:20:52;11.57;;;9.97;;
10050;SDS011;5065;46.942;7.432;2023-02-28T14:23:34;13.00;;;9.73;;
10050;SDS011;5065;46.942;7.432;2023-02-28T14:26:21;13.27;;;10.83;;
10050;SDS011;5065;46.942;7.432;2023-02-28T14:29:03;12.17;;;10.03;;
10050;SDS011;5065;46.942;7.432;2023-02-28T14:31:45;12.93;;;9.97;;
10050;SDS011;5065;46.942;7.432;2023-02-28T14:34:25;15.30;;;11.07;;
10050;SDS011;5065;46.942;7.432;2023-02-28T14:37:02;13.97;;;10.63;;
10050;SDS011;5065;46.942;7.432;2023-02-28T14:39:34;13.90;;;11.17;;
10050;SDS011;5065;46.942;7.432;2023-02-28T14:42:02;13.83;;;10.67;;
10050;SDS011;5065;46.942;7.432;2023-02-28T14:44:30;15.17;;;10.67;;
10050;SDS011;5065;46.942;7.432;2023-02-28T14:46:59;14.70;;;10.87;;
10050;SDS011;5065;46.942;7.432;2023-02-28T14:49:32;13.87;;;11.07;;
10050;SDS011;5065;46.942;7.432;2023-02-28T14:52:03;14.03;;;11.07;;
10050;SDS011;5065;46.942;7.432;2023-02-28T14:54:36;13.60;;;10.57;;
10050;SDS011;5065;46.942;7.432;2023-02-28T14:57:04;12.90;;;10.87;;
10050;SDS011;5065;46.942;7.432;2023-02-28T14:59:32;12.00;;;10.20;;
10050;SDS011;5065;46.942;7.432;2023-02-28T15:02:18;13.77;;;10.13;;
10050;SDS011;5065;46.942;7.432;2023-02-28T15:04:54;13.53;;;10.23;;
10050;SDS011;5065;46.942;7.432;2023-02-28T15:07:22;14.77;;;11.87;;
10050;SDS011;5065;46.942;7.432;2023-02-28T15:10:11;13.10;;;10.30;;
10050;SDS011;5065;46.942;7.432;2023-02-28T15:12:45;12.97;;;10.53;;
10050;SDS011;5065;46.942;7.432;2023-02-28T15:15:18;14.87;;;10.63;;
10050;SDS011;5065;46.942;7.432;2023-02-28T15:17:48;13.47;;;10.07;;
10050;SDS011;5065;46.942;7.432;2023-02-28T15:20:18;15.03;;;10.17;;
10050;SDS011;5065;46.942;7.432;2023-02-28T15:22:46;13.17;;;10.23;;
10050;SDS011;5065;46.942;7.432;2023-02-28T15:25:17;16.70;;;12.33;;
10050;SDS011;5065;46.942;7.432;2023-02-28T15:27:47;14.60;;;11.40;;
10050;SDS011;5065;46.942;7.432;2023-02-28T15:30:18;16.30;;;12.50;;
10050;SDS011;5065;46.942;7.432;2023-02-28T15:33:02;14.80;;;11.07;;
10050;SDS011;5065;46.942;7.432;2023-02-28T15:35:31;13.50;;;11.00;;
10050;SDS011;5065;46.942;7.432;2023-02-28T15:38:00;13.77;;;10.13;;
10050;SDS011;5065;46.942;7.432;2023-02-28T15:40:36;16.40;;;11.33;;
10050;SDS011;5065;46.942;7.432;2023-02-28T15:43:06;13.73;;;10.07;;
10050;SDS011;5065;46.942;7.432;2023-02-28T15:45:41;14.90;;;10.27;;
10050;SDS011;5065;46.942;7.432;2023-02-28T15:48:14;11.43;;;9.30;;